createdAt,value
2022-09-22T00:01:26.081Z,12.33
2022-09-22T00:03:58.868Z,8.97
2022-09-22T00:06:28.795Z,8.53
2022-09-22T00:09:00.642Z,9.43
2022-09-22T00:11:36.388Z,10.23
2022-09-22T00:14:16.994Z,6.03
2022-09-22T00:16:53.557Z,6.33
2022-09-22T00:19:24.709Z,6.43
2022-09-22T00:21:52.084Z,11.20
2022-09-22T00:24:22.636Z,8.40
2022-09-22T00:26:51.139Z,6.20
2022-09-22T00:29:18.946Z,7.23
2022-09-22T00:31:46.013Z,6.57
2022-09-22T00:34:19.528Z,6.33
2022-09-22T00:36:46.812Z,7.27
2022-09-22T00:39:14.969Z,6.47
2022-09-22T00:41:44.901Z,7.33
2022-09-22T00:44:27.696Z,5.83
2022-09-22T00:47:19.439Z,7.40
2022-09-22T00:50:01.561Z,8.67
2022-09-22T00:52:43.598Z,7.53
2022-09-22T00:55:28.839Z,8.60
2022-09-22T00:57:57.011Z,8.57
2022-09-22T01:00:24.038Z,8.47
2022-09-22T01:02:57.126Z,7.03
2022-09-22T01:05:26.000Z,7.37
2022-09-22T01:07:55.224Z,8.80
2022-09-22T01:10:24.028Z,6.43
2022-09-22T01:13:20.079Z,8.20
2022-09-22T01:15:53.009Z,7.93
2022-09-22T01:18:48.238Z,6.50
2022-09-22T01:21:52.089Z,7.43
2022-09-22T01:24:47.333Z,8.23
2022-09-22T01:27:28.529Z,8.23
2022-09-22T01:30:16.737Z,6.20
2022-09-22T01:33:14.919Z,8.53
2022-09-22T01:36:00.295Z,10.23
2022-09-22T01:38:58.319Z,9.00
2022-09-22T01:41:45.080Z,6.67
2022-09-22T01:44:18.634Z,8.30
2022-09-22T01:47:12.304Z,7.27
2022-09-22T01:49:45.200Z,7.77
2022-09-22T01:52:21.488Z,9.03
2022-09-22T01:55:11.030Z,8.67
2022-09-22T01:57:53.607Z,7.73
2022-09-22T02:00:21.005Z,8.60
2022-09-22T02:03:05.864Z,9.47
2022-09-22T02:05:42.092Z,8.33
2022-09-22T02:08:15.146Z,8.77
2022-09-22T02:10:45.719Z,7.07
2022-09-22T02:13:12.471Z,8.93
2022-09-22T02:15:58.350Z,7.60
2022-09-22T02:18:29.592Z,7.27
2022-09-22T02:20:56.571Z,9.33
2022-09-22T02:23:27.294Z,7.57
2022-09-22T02:25:55.188Z,9.97
2022-09-22T02:28:23.641Z,9.27
2022-09-22T02:31:17.870Z,6.47
2022-09-22T02:33:42.085Z,8.30
2022-09-22T02:36:18.731Z,6.73
2022-09-22T02:39:11.732Z,5.43
2022-09-22T02:41:47.674Z,7.30
2022-09-22T02:44:24.126Z,6.67
2022-09-22T02:46:59.743Z,7.77
2022-09-22T02:49:27.954Z,7.23
2022-09-22T02:51:55.129Z,8.60
2022-09-22T02:54:23.322Z,10.80
2022-09-22T02:56:50.086Z,9.13
2022-09-22T02:59:16.895Z,10.63
2022-09-22T03:01:43.782Z,7.90
2022-09-22T03:04:10.586Z,7.20
2022-09-22T03:06:38.005Z,6.67
2022-09-22T03:09:05.220Z,6.90
2022-09-22T03:11:32.198Z,10.17
2022-09-22T03:13:58.983Z,8.13
2022-09-22T03:16:25.750Z,10.20
2022-09-22T03:18:52.494Z,8.20
2022-09-22T03:21:19.290Z,8.93
2022-09-22T03:23:46.487Z,9.20
2022-09-22T03:26:13.435Z,10.50
2022-09-22T03:28:43.896Z,8.37
2022-09-22T03:31:11.983Z,12.33
2022-09-22T03:33:39.089Z,7.93
2022-09-22T03:36:06.403Z,11.07
2022-09-22T03:38:33.410Z,9.67
2022-09-22T03:41:02.254Z,10.73
2022-09-22T03:43:29.128Z,10.77
2022-09-22T03:46:00.615Z,9.03
2022-09-22T03:48:28.988Z,9.90
2022-09-22T03:50:56.913Z,8.53
2022-09-22T03:53:26.202Z,9.60
2022-09-22T03:56:14.535Z,9.70
2022-09-22T03:58:42.185Z,8.13
2022-09-22T04:01:11.440Z,9.37
2022-09-22T04:03:39.119Z,11.83
2022-09-22T04:06:06.994Z,9.97
2022-09-22T04:08:34.151Z,11.13
2022-09-22T04:11:01.791Z,9.40
2022-09-22T04:13:28.553Z,8.57
2022-09-22T04:15:56.667Z,10.33
2022-09-22T04:18:23.647Z,7.97
2022-09-22T04:20:51.444Z,11.10
2022-09-22T04:23:18.480Z,10.33
2022-09-22T04:25:45.527Z,13.67
2022-09-22T04:28:13.592Z,10.77
2022-09-22T04:30:40.721Z,13.07
2022-09-22T04:33:07.494Z,12.60
2022-09-22T04:35:34.503Z,10.93
2022-09-22T04:38:01.327Z,10.83
2022-09-22T04:40:28.570Z,10.50
2022-09-22T04:42:56.443Z,12.80
2022-09-22T04:45:23.472Z,14.23
2022-09-22T04:47:52.160Z,13.67
2022-09-22T04:50:20.393Z,9.93
2022-09-22T04:52:50.066Z,9.77
2022-09-22T04:55:17.542Z,11.33
2022-09-22T04:57:51.726Z,10.37
2022-09-22T05:00:20.077Z,9.77
2022-09-22T05:02:46.956Z,15.30
2022-09-22T05:05:14.570Z,13.53
2022-09-22T05:07:46.526Z,12.60
2022-09-22T05:10:15.061Z,11.50
2022-09-22T05:12:42.521Z,12.57
2022-09-22T05:15:11.117Z,13.60
2022-09-22T05:17:44.579Z,11.57
2022-09-22T05:20:11.740Z,12.33
2022-09-22T05:22:42.059Z,13.47
2022-09-22T05:25:14.140Z,10.53
2022-09-22T05:27:51.994Z,13.87
2022-09-22T05:30:20.209Z,13.60
2022-09-22T05:32:48.305Z,13.37
2022-09-22T05:35:20.578Z,14.10
2022-09-22T05:37:48.962Z,12.63
2022-09-22T05:40:17.117Z,11.40
2022-09-22T05:42:46.203Z,13.77
2022-09-22T05:45:13.483Z,15.60
2022-09-22T05:47:40.441Z,13.97
2022-09-22T05:50:08.941Z,14.93
2022-09-22T05:52:36.131Z,14.37
2022-09-22T05:55:02.954Z,12.57
2022-09-22T05:57:31.790Z,11.90
2022-09-22T05:59:58.854Z,15.97
2022-09-22T06:02:26.831Z,16.60
2022-09-22T06:04:54.371Z,17.23
2022-09-22T06:07:22.552Z,14.53
2022-09-22T06:09:49.583Z,17.20
2022-09-22T06:12:17.598Z,15.00
2022-09-22T06:14:44.588Z,22.07
2022-09-22T06:17:12.440Z,16.97
2022-09-22T06:19:40.318Z,23.00
2022-09-22T06:22:08.744Z,32.10
2022-09-22T06:24:35.543Z,25.47
2022-09-22T06:27:02.721Z,20.57
2022-09-22T06:29:29.992Z,20.00
2022-09-22T06:31:56.809Z,20.17
2022-09-22T06:34:23.969Z,20.60
2022-09-22T06:36:50.734Z,18.57
2022-09-22T06:39:17.502Z,20.50
2022-09-22T06:41:44.934Z,19.37
2022-09-22T06:44:15.358Z,21.03
2022-09-22T06:46:42.440Z,20.87
2022-09-22T06:49:09.683Z,20.73
2022-09-22T06:51:36.996Z,21.63
2022-09-22T06:54:06.002Z,33.87
2022-09-22T06:56:37.038Z,30.47
2022-09-22T06:59:18.188Z,28.80
2022-09-22T07:01:45.725Z,19.97
2022-09-22T07:04:12.826Z,21.30
2022-09-22T07:06:40.534Z,21.13
2022-09-22T07:09:09.282Z,18.50
2022-09-22T07:11:39.860Z,19.90
2022-09-22T07:14:08.438Z,17.50
2022-09-22T07:16:36.356Z,20.10
2022-09-22T07:19:04.869Z,20.00
2022-09-22T07:21:36.420Z,23.53
2022-09-22T07:24:04.302Z,22.00
2022-09-22T07:26:33.908Z,21.10
2022-09-22T07:29:03.139Z,20.30
2022-09-22T07:31:32.053Z,19.90
2022-09-22T07:34:02.009Z,23.20
2022-09-22T07:36:31.463Z,21.03
2022-09-22T07:39:04.250Z,20.83
2022-09-22T07:41:32.666Z,19.23
2022-09-22T07:44:20.798Z,21.40
2022-09-22T07:46:47.741Z,21.50
2022-09-22T07:49:15.285Z,26.20
2022-09-22T07:51:42.265Z,20.53
2022-09-22T07:54:09.173Z,20.17
2022-09-22T07:56:41.816Z,21.67
2022-09-22T07:59:10.998Z,23.97
2022-09-22T08:01:49.188Z,24.30
2022-09-22T08:04:18.979Z,24.13
2022-09-22T08:06:55.326Z,20.13
2022-09-22T08:09:23.027Z,21.20
2022-09-22T08:11:50.387Z,21.53
2022-09-22T08:14:18.244Z,20.10
2022-09-22T08:16:46.018Z,19.03
2022-09-22T08:19:13.967Z,17.67
2022-09-22T08:21:48.379Z,19.30
2022-09-22T08:24:22.635Z,16.87
2022-09-22T08:26:51.206Z,15.83
2022-09-22T08:29:17.977Z,14.60
2022-09-22T08:31:47.918Z,14.30
2022-09-22T08:34:18.654Z,13.97
2022-09-22T08:36:49.520Z,12.33
2022-09-22T08:39:17.718Z,10.80
2022-09-22T08:41:49.990Z,12.17
2022-09-22T08:44:24.552Z,12.13
2022-09-22T08:46:53.616Z,11.50
2022-09-22T08:49:48.177Z,12.47
2022-09-22T08:52:33.596Z,11.20
2022-09-22T08:55:02.622Z,12.27
2022-09-22T08:57:56.473Z,12.23
2022-09-22T09:00:25.410Z,11.47
2022-09-22T09:03:01.468Z,9.33
2022-09-22T09:05:41.800Z,10.07
2022-09-22T09:08:11.390Z,10.87
2022-09-22T09:11:16.778Z,8.73
2022-09-22T09:13:52.355Z,11.77
2022-09-22T09:16:34.207Z,8.60
2022-09-22T09:19:09.841Z,8.17
2022-09-22T09:21:40.410Z,8.67
2022-09-22T09:27:13.767Z,8.10
2022-09-22T09:30:17.710Z,7.70
2022-09-22T09:32:56.457Z,7.00
2022-09-22T09:35:52.225Z,6.63
2022-09-22T09:38:28.573Z,7.77
2022-09-22T09:41:37.145Z,6.43
2022-09-22T09:44:05.220Z,6.80
2022-09-22T09:47:02.525Z,7.93
2022-09-22T09:49:29.576Z,8.27
2022-09-22T09:52:01.273Z,6.20
2022-09-22T09:54:28.779Z,5.03
2022-09-22T09:57:01.700Z,5.80
2022-09-22T09:59:47.300Z,5.77
2022-09-22T10:02:17.788Z,5.40
2022-09-22T10:04:52.054Z,6.53
2022-09-22T10:07:22.701Z,5.13
2022-09-22T10:09:51.538Z,5.22
2022-09-22T10:12:24.082Z,4.45
2022-09-22T10:14:53.527Z,4.75
2022-09-22T10:17:41.093Z,5.82
2022-09-22T10:20:24.450Z,5.03
2022-09-22T10:22:51.236Z,6.05
2022-09-22T10:25:21.640Z,4.95
2022-09-22T10:28:02.272Z,3.90
2022-09-22T10:30:37.846Z,3.85
2022-09-22T10:33:06.195Z,3.92
2022-09-22T10:35:34.369Z,4.43
2022-09-22T10:38:15.212Z,5.93
2022-09-22T10:40:47.429Z,3.50
2022-09-22T10:43:41.057Z,3.25
2022-09-22T10:46:08.271Z,3.83
2022-09-22T10:48:54.788Z,4.10
2022-09-22T10:51:31.426Z,4.50
2022-09-22T10:54:06.349Z,5.07
2022-09-22T10:56:35.814Z,4.53
2022-09-22T10:59:14.865Z,5.53
2022-09-22T11:01:41.650Z,3.50
2022-09-22T11:04:18.707Z,4.13
2022-09-22T11:07:23.828Z,3.83
2022-09-22T11:10:40.214Z,2.75
2022-09-22T11:13:06.928Z,3.50
2022-09-22T11:16:04.840Z,4.50
2022-09-22T11:18:42.904Z,2.90
2022-09-22T11:21:15.981Z,3.17
2022-09-22T11:24:05.804Z,4.28
2022-09-22T11:26:52.207Z,5.30
2022-09-22T11:29:30.876Z,5.97
2022-09-22T11:32:16.231Z,4.73
2022-09-22T11:35:15.240Z,4.53
2022-09-22T11:38:11.432Z,5.55
2022-09-22T11:41:04.826Z,4.00
2022-09-22T11:44:05.883Z,6.65
2022-09-22T11:46:48.219Z,2.20
2022-09-22T11:49:36.714Z,2.65
2022-09-22T11:52:24.556Z,1.92
2022-09-22T11:55:17.362Z,2.90
2022-09-22T11:57:51.154Z,3.08
2022-09-22T12:00:20.988Z,8.82
2022-09-22T12:03:06.490Z,2.65
2022-09-22T12:05:42.484Z,2.22
2022-09-22T12:08:18.749Z,2.60
2022-09-22T12:10:47.101Z,3.80
2022-09-22T12:13:22.497Z,4.03
2022-09-22T12:16:25.538Z,2.37
2022-09-22T12:19:22.787Z,3.37
2022-09-22T12:22:29.725Z,4.47
2022-09-22T12:24:56.471Z,2.63
2022-09-22T12:27:26.179Z,2.35
2022-09-22T12:29:57.960Z,2.60
2022-09-22T12:32:31.943Z,1.80
2022-09-22T12:35:00.099Z,2.47
2022-09-22T12:37:38.628Z,4.05
2022-09-22T12:40:14.490Z,1.70
2022-09-22T12:42:43.792Z,2.40
2022-09-22T12:45:20.738Z,20.48
2022-09-22T12:47:51.525Z,15.02
2022-09-22T12:50:24.448Z,10.00
2022-09-22T12:52:51.245Z,4.10
2022-09-22T12:55:29.478Z,3.22
2022-09-22T12:58:01.352Z,3.05
2022-09-22T13:00:37.115Z,4.07
2022-09-22T13:03:25.607Z,3.53
2022-09-22T13:05:56.311Z,2.92
2022-09-22T13:08:48.660Z,4.55
2022-09-22T13:11:15.708Z,3.42
2022-09-22T13:13:43.750Z,2.30
2022-09-22T13:16:16.343Z,4.50
2022-09-22T13:18:46.096Z,2.33
2022-09-22T13:21:12.942Z,2.38
2022-09-22T13:24:00.198Z,4.90
2022-09-22T13:26:29.959Z,3.72
2022-09-22T13:29:19.892Z,4.50
2022-09-22T13:31:52.814Z,2.07
2022-09-22T13:34:34.810Z,5.40
2022-09-22T13:37:12.297Z,2.80
2022-09-22T13:39:47.128Z,4.90
2022-09-22T13:42:22.339Z,2.77
2022-09-22T13:45:18.622Z,5.03
2022-09-22T13:47:48.029Z,3.27
2022-09-22T13:50:22.375Z,7.07
2022-09-22T13:52:52.885Z,7.13
2022-09-22T13:55:33.964Z,11.97
2022-09-22T13:58:03.214Z,6.33
2022-09-22T14:01:08.651Z,3.13
2022-09-22T14:03:37.187Z,3.90
2022-09-22T14:06:08.442Z,2.67
2022-09-22T14:08:35.553Z,1.73
2022-09-22T14:11:32.422Z,3.45
2022-09-22T14:14:01.293Z,3.88
2022-09-22T14:16:34.363Z,2.67
2022-09-22T14:19:03.082Z,5.47
2022-09-22T14:21:31.619Z,2.95
2022-09-22T14:23:59.498Z,4.03
2022-09-22T14:26:39.074Z,2.90
2022-09-22T14:29:33.017Z,2.93
2022-09-22T14:32:35.363Z,4.50
2022-09-22T14:35:05.991Z,4.78
2022-09-22T14:37:39.223Z,7.90
2022-09-22T14:40:14.859Z,7.87
2022-09-22T14:42:41.796Z,6.47
2022-09-22T14:45:11.685Z,4.22
2022-09-22T14:47:42.640Z,4.13
2022-09-22T14:50:18.769Z,5.78
2022-09-22T14:52:53.327Z,6.60
2022-09-22T14:55:28.633Z,2.40
2022-09-22T14:57:56.649Z,3.65
2022-09-22T15:00:42.179Z,3.53
2022-09-22T15:03:29.559Z,3.75
2022-09-22T15:06:07.578Z,3.20
2022-09-22T15:08:35.527Z,2.90
2022-09-22T15:11:03.472Z,5.18
2022-09-22T15:13:38.526Z,6.17
2022-09-22T15:16:07.308Z,5.23
2022-09-22T15:18:34.307Z,6.27
2022-09-22T15:21:14.668Z,5.80
2022-09-22T15:23:45.536Z,7.80
2022-09-22T15:26:25.553Z,8.33
2022-09-22T15:28:54.561Z,7.77
2022-09-22T15:31:28.292Z,10.17
2022-09-22T15:34:01.499Z,6.23
2022-09-22T15:36:32.788Z,6.17
2022-09-22T15:39:07.276Z,7.03
2022-09-22T15:41:34.898Z,7.87
2022-09-22T15:44:03.334Z,9.67
2022-09-22T15:46:37.892Z,10.47
2022-09-22T15:49:12.420Z,11.07
2022-09-22T15:51:39.745Z,10.70
2022-09-22T15:54:14.115Z,8.93
2022-09-22T15:56:42.093Z,9.87
2022-09-22T15:59:22.349Z,10.93
2022-09-22T16:01:51.841Z,10.57
2022-09-22T16:04:20.887Z,11.40
2022-09-22T16:06:56.945Z,10.60
2022-09-22T16:09:25.186Z,11.90
2022-09-22T16:11:52.106Z,5.23
2022-09-22T16:14:19.877Z,9.27
2022-09-22T16:16:49.683Z,4.83
2022-09-22T16:19:18.930Z,5.73
2022-09-22T16:21:54.253Z,5.43
2022-09-22T16:24:22.749Z,5.60
2022-09-22T16:26:51.904Z,5.80
2022-09-22T16:29:20.185Z,7.40
2022-09-22T16:31:49.081Z,4.23
2022-09-22T16:34:16.295Z,4.83
2022-09-22T16:36:49.525Z,5.77
2022-09-22T16:39:17.289Z,6.83
2022-09-22T16:41:45.676Z,4.20
2022-09-22T16:44:13.692Z,4.53
2022-09-22T16:46:42.938Z,4.87
2022-09-22T16:49:13.778Z,5.87
2022-09-22T16:51:42.987Z,7.00
2022-09-22T16:54:13.835Z,6.00
2022-09-22T16:56:43.475Z,8.47
2022-09-22T16:59:11.365Z,6.73
2022-09-22T17:01:38.795Z,9.97
2022-09-22T17:04:07.297Z,5.70
2022-09-22T17:06:38.367Z,5.30
2022-09-22T17:09:06.350Z,4.93
2022-09-22T17:11:37.472Z,7.40
2022-09-22T17:14:12.121Z,5.10
2022-09-22T17:16:49.475Z,5.53
2022-09-22T17:19:19.555Z,14.43
2022-09-22T17:21:48.466Z,6.60
2022-09-22T17:24:16.199Z,8.90
2022-09-22T17:26:49.264Z,8.87
2022-09-22T17:29:17.875Z,8.90
2022-09-22T17:31:47.963Z,6.50
2022-09-22T17:34:15.300Z,11.00
2022-09-22T17:36:42.072Z,7.73
2022-09-22T17:39:10.578Z,14.67
2022-09-22T17:41:46.857Z,10.40
2022-09-22T17:44:18.878Z,9.13
2022-09-22T17:47:04.432Z,9.40
2022-09-22T17:49:50.131Z,9.60
2022-09-22T17:52:29.592Z,11.03
2022-09-22T17:55:07.261Z,8.87
2022-09-22T17:57:36.495Z,9.90
2022-09-22T18:00:05.409Z,9.13
2022-09-22T18:02:36.801Z,7.80
2022-09-22T18:05:08.574Z,9.00
2022-09-22T18:07:36.753Z,13.10
2022-09-22T18:10:05.250Z,11.23
2022-09-22T18:12:32.347Z,10.57
2022-09-22T18:15:01.363Z,11.03
2022-09-22T18:17:30.106Z,12.17
2022-09-22T18:19:58.102Z,10.90
2022-09-22T18:22:26.701Z,10.07
2022-09-22T18:24:55.465Z,10.83
2022-09-22T18:27:23.806Z,10.47
2022-09-22T18:29:50.686Z,9.50
2022-09-22T18:32:20.069Z,9.13
2022-09-22T18:34:47.577Z,9.23
2022-09-22T18:37:15.738Z,7.87
2022-09-22T18:39:45.584Z,10.20
2022-09-22T18:42:13.597Z,7.27
2022-09-22T18:44:43.692Z,8.10
2022-09-22T18:47:14.844Z,7.63
2022-09-22T18:49:41.816Z,8.67
2022-09-22T18:52:08.992Z,6.63
2022-09-22T18:54:43.174Z,8.27
2022-09-22T18:57:12.911Z,9.13
2022-09-22T18:59:40.151Z,11.97
2022-09-22T19:02:11.278Z,14.80
2022-09-22T19:04:38.967Z,11.30
2022-09-22T19:07:24.633Z,10.47
2022-09-22T19:09:52.981Z,10.37
2022-09-22T19:12:20.573Z,7.40
2022-09-22T19:14:48.979Z,8.50
2022-09-22T19:17:17.388Z,7.37
2022-09-22T19:19:49.878Z,6.43
2022-09-22T19:22:16.910Z,7.83
2022-09-22T19:24:46.092Z,6.23
2022-09-22T19:27:15.447Z,7.50
2022-09-22T19:29:42.323Z,7.67
2022-09-22T19:32:09.507Z,6.63
2022-09-22T19:34:36.434Z,7.07
2022-09-22T19:37:03.694Z,10.20
2022-09-22T19:39:32.233Z,14.20
2022-09-22T19:41:59.397Z,8.87
2022-09-22T19:44:27.186Z,7.03
2022-09-22T19:46:54.083Z,7.53
2022-09-22T19:49:21.957Z,11.13
2022-09-22T19:51:48.960Z,5.80
2022-09-22T19:54:15.855Z,5.30
2022-09-22T19:56:42.693Z,5.83
2022-09-22T19:59:09.791Z,5.90
2022-09-22T20:01:40.341Z,13.63
2022-09-22T20:04:18.658Z,4.70
2022-09-22T20:06:48.981Z,7.00
2022-09-22T20:09:16.907Z,6.67
2022-09-22T20:11:49.830Z,9.07
2022-09-22T20:14:20.254Z,8.03
2022-09-22T20:16:57.593Z,9.37
2022-09-22T20:19:25.893Z,14.90
2022-09-22T20:22:16.995Z,14.30
2022-09-22T20:24:50.364Z,11.10
2022-09-22T20:27:20.077Z,10.27
2022-09-22T20:29:47.967Z,9.17
2022-09-22T20:32:14.883Z,11.37
2022-09-22T20:34:43.814Z,11.90
2022-09-22T20:37:14.422Z,11.10
2022-09-22T20:39:41.784Z,12.53
2022-09-22T20:42:09.428Z,16.33
2022-09-22T20:44:38.027Z,12.77
2022-09-22T20:47:25.430Z,13.17
2022-09-22T20:49:53.328Z,16.13
2022-09-22T20:52:21.352Z,18.97
2022-09-22T20:54:48.449Z,23.20
2022-09-22T20:57:15.455Z,28.50
2022-09-22T20:59:45.783Z,32.37
2022-09-22T21:02:14.010Z,28.70
2022-09-22T21:04:41.203Z,29.50
2022-09-22T21:07:08.732Z,25.50
2022-09-22T21:09:55.081Z,23.57
2022-09-22T21:12:23.605Z,26.03
2022-09-22T21:14:52.992Z,22.27
2022-09-22T21:17:20.787Z,16.90
2022-09-22T21:19:47.639Z,20.23
2022-09-22T21:22:15.164Z,20.23
2022-09-22T21:24:45.769Z,29.43
2022-09-22T21:27:13.739Z,23.43
2022-09-22T21:29:41.891Z,23.27
2022-09-22T21:32:09.567Z,15.73
2022-09-22T21:34:37.608Z,13.70
2022-09-22T21:37:05.566Z,12.20
2022-09-22T21:39:32.577Z,14.43
2022-09-22T21:41:59.369Z,16.17
2022-09-22T21:44:26.212Z,15.43
2022-09-22T21:46:54.225Z,18.23
2022-09-22T21:49:21.489Z,15.07
2022-09-22T21:51:48.436Z,17.73
2022-09-22T21:54:18.138Z,15.57
2022-09-22T21:56:45.677Z,19.73
2022-09-22T21:59:13.322Z,20.80
2022-09-22T22:01:46.313Z,13.07
2022-09-22T22:04:15.186Z,22.03
2022-09-22T22:06:44.576Z,17.77
2022-09-22T22:09:15.167Z,16.93
2022-09-22T22:11:49.661Z,11.83
2022-09-22T22:14:19.563Z,17.30
2022-09-22T22:16:48.798Z,15.77
2022-09-22T22:19:19.972Z,21.33
2022-09-22T22:21:48.641Z,20.20
2022-09-22T22:24:36.897Z,23.00
2022-09-22T22:27:10.182Z,20.87
2022-09-22T22:29:41.160Z,19.70
2022-09-22T22:32:10.533Z,24.17
2022-09-22T22:34:37.835Z,20.17
2022-09-22T22:37:08.798Z,19.70
2022-09-22T22:39:35.571Z,24.07
2022-09-22T22:42:02.316Z,27.93
2022-09-22T22:44:29.296Z,27.17
2022-09-22T22:46:57.285Z,34.50
2022-09-22T22:49:24.331Z,36.60
2022-09-22T22:51:52.277Z,34.53
2022-09-22T22:54:19.399Z,32.07
2022-09-22T22:56:50.758Z,40.77
2022-09-22T22:59:18.382Z,42.67
2022-09-22T23:01:45.544Z,42.67
2022-09-22T23:04:13.705Z,37.27
2022-09-22T23:06:44.484Z,39.00
2022-09-22T23:09:14.887Z,41.43
2022-09-22T23:11:42.733Z,50.37
2022-09-22T23:14:11.801Z,59.40
2022-09-22T23:16:44.041Z,53.27
2022-09-22T23:19:19.626Z,42.47
2022-09-22T23:21:47.290Z,41.13
2022-09-22T23:24:16.299Z,35.87
2022-09-22T23:26:44.431Z,33.77
2022-09-22T23:29:12.528Z,30.33
2022-09-22T23:31:39.572Z,21.23
2022-09-22T23:34:06.463Z,27.20
2022-09-22T23:36:33.253Z,22.50
2022-09-22T23:39:03.704Z,17.23
2022-09-22T23:41:31.978Z,25.33
2022-09-22T23:43:59.101Z,16.57
2022-09-22T23:46:27.042Z,21.07
2022-09-22T23:48:55.749Z,28.10
2022-09-22T23:51:24.002Z,23.87
2022-09-22T23:53:50.991Z,21.37
2022-09-22T23:56:19.553Z,29.70
2022-09-22T23:58:46.819Z,30.50
